15MA weather

Canapitsit Airport
Gosnold, Massachusetts, United States

Public forecast

Using degrees Fahrenheit for public forecast. Weather courtesy of forecast.io.

METAR (pilot weather report)

Closest report is Martha's Vineyard Airport, 13.4 nm (24.8 km) E. Retrieved 2019/07/23 22:53 UTC (25 minutes ago):

KMVY 232253Z 36004KT 10SM SCT043 OVC050 19/16 A2991 RMK AO2 SLP128 T01890156

TAF (pilot weather forecast)

Closest forecast is Cape Cod Coast Guard Air Station, 22.5 nm (41.6 km) NE. Retrieved 2019/07/23 18:34 UTC (5 hours ago):

TAF KFMH 231731Z 2318/2418 01013G24KT P6SM SCT008 BKN015 FM232200 01007KT P6SM OVC035 FM240200 00000KT P6SM VCSH OVC070 FM240800 04003KT P6SM VCSH OVC025 FM241300 04007KT P6SM BKN035 FM241700 04008KT P6SM BKN090